createdAt,value
2022-08-06T00:00:02.941Z,72.62
2022-08-06T00:02:31.222Z,72.79
2022-08-06T00:05:03.806Z,72.70
2022-08-06T00:07:35.915Z,72.69
2022-08-06T00:10:13.929Z,72.96
2022-08-06T00:12:41.751Z,73.13
2022-08-06T00:15:13.527Z,73.46
2022-08-06T00:17:46.359Z,73.66
2022-08-06T00:20:26.025Z,73.70
2022-08-06T00:23:00.864Z,73.77
2022-08-06T00:25:28.809Z,73.91
2022-08-06T00:28:02.207Z,74.04
2022-08-06T00:30:36.879Z,74.16
2022-08-06T00:33:04.762Z,73.92
2022-08-06T00:35:31.877Z,74.13
2022-08-06T00:37:59.838Z,74.82
2022-08-06T00:40:31.515Z,74.97
2022-08-06T00:43:02.470Z,74.89
2022-08-06T00:45:38.002Z,74.56
2022-08-06T00:48:30.844Z,74.38
2022-08-06T00:51:01.928Z,74.60
2022-08-06T00:53:33.976Z,74.07
2022-08-06T00:56:08.896Z,74.59
2022-08-06T00:58:40.014Z,74.52
2022-08-06T01:01:17.368Z,74.58
2022-08-06T01:03:51.552Z,74.09
2022-08-06T01:06:54.254Z,74.52
2022-08-06T01:09:11.071Z,74.89
2022-08-06T01:11:40.044Z,73.96
2022-08-06T01:14:09.986Z,74.00
2022-08-06T01:16:49.542Z,75.06
2022-08-06T01:19:50.443Z,74.56
2022-08-06T01:22:54.255Z,74.51
2022-08-06T01:25:53.186Z,74.80
2022-08-06T01:28:46.388Z,75.17
2022-08-06T01:31:45.820Z,74.97
2022-08-06T01:34:25.599Z,75.58
2022-08-06T01:37:09.783Z,75.18
2022-08-06T01:39:54.009Z,75.72
2022-08-06T01:42:34.820Z,75.46
2022-08-06T01:45:09.871Z,75.46
2022-08-06T01:47:54.654Z,76.20
2022-08-06T01:50:29.290Z,76.71
2022-08-06T01:53:01.128Z,76.91
2022-08-06T01:55:56.360Z,76.92
2022-08-06T01:58:34.455Z,77.42
2022-08-06T02:01:07.849Z,78.14
2022-08-06T02:03:50.014Z,77.90
2022-08-06T02:06:34.085Z,78.21
2022-08-06T02:09:23.234Z,79.13
2022-08-06T02:12:16.402Z,79.08
2022-08-06T02:14:55.113Z,79.32
2022-08-06T02:18:03.619Z,79.75
2022-08-06T02:20:37.461Z,79.59
2022-08-06T02:23:10.144Z,80.17
2022-08-06T02:25:41.454Z,80.73
2022-08-06T02:28:11.462Z,80.55
2022-08-06T02:30:53.543Z,79.54
2022-08-06T02:33:20.616Z,80.17
2022-08-06T02:36:30.528Z,80.75
2022-08-06T02:39:12.629Z,80.83
2022-08-06T02:41:56.801Z,80.58
2022-08-06T02:44:45.748Z,80.84
2022-08-06T02:47:18.499Z,81.54
2022-08-06T02:49:56.934Z,82.15
2022-08-06T02:52:56.327Z,82.51
2022-08-06T02:55:34.391Z,82.13
2022-08-06T02:58:38.731Z,81.96
2022-08-06T03:01:21.410Z,81.92
2022-08-06T03:03:59.463Z,80.92
2022-08-06T03:06:34.559Z,81.45
2022-08-06T03:09:05.738Z,81.00
2022-08-06T03:11:36.150Z,81.42
2022-08-06T03:14:13.194Z,81.11
2022-08-06T03:16:58.388Z,80.94
2022-08-06T03:19:56.277Z,81.30
2022-08-06T03:22:35.444Z,80.49
2022-08-06T03:25:09.827Z,80.63
2022-08-06T03:27:43.756Z,81.49
2022-08-06T03:30:31.419Z,81.65
2022-08-06T03:33:28.661Z,81.44
2022-08-06T03:36:01.230Z,81.61
2022-08-06T03:38:35.500Z,81.59
2022-08-06T03:41:08.054Z,81.91
2022-08-06T03:43:55.951Z,82.20
2022-08-06T03:46:31.693Z,82.62
2022-08-06T03:49:04.479Z,83.04
2022-08-06T03:51:53.088Z,83.19
2022-08-06T03:54:33.776Z,83.56
2022-08-06T03:57:12.123Z,83.13
2022-08-06T03:59:59.194Z,83.32
2022-08-06T04:02:50.568Z,83.23
2022-08-06T04:05:25.814Z,83.33
2022-08-06T04:07:57.686Z,83.30
2022-08-06T04:10:33.916Z,83.15
2022-08-06T04:13:37.951Z,82.95
2022-08-06T04:15:56.292Z,83.01
2022-08-06T04:18:41.716Z,83.48
2022-08-06T04:23:07.431Z,83.78
2022-08-06T04:24:09.962Z,84.15
2022-08-06T04:26:40.514Z,83.85
2022-08-06T04:29:13.544Z,84.20
2022-08-06T04:32:13.116Z,84.11
2022-08-06T04:34:37.414Z,83.32
2022-08-06T04:37:24.932Z,83.26
2022-08-06T04:39:52.748Z,83.19
2022-08-06T04:42:21.245Z,83.44
2022-08-06T04:44:59.251Z,83.29
2022-08-06T04:47:41.977Z,83.39
2022-08-06T04:50:17.718Z,83.84
2022-08-06T04:52:50.346Z,83.93
2022-08-06T04:55:33.463Z,83.58
2022-08-06T04:58:11.350Z,83.14
2022-08-06T05:00:59.591Z,82.96
2022-08-06T05:04:06.875Z,82.98
2022-08-06T05:06:34.846Z,82.56
2022-08-06T05:09:22.980Z,82.23
2022-08-06T05:12:07.019Z,82.24
2022-08-06T05:14:46.349Z,82.76
2022-08-06T05:17:18.286Z,82.90
2022-08-06T05:19:58.291Z,82.69
2022-08-06T05:22:52.264Z,82.37
2022-08-06T05:25:22.241Z,81.82
2022-08-06T05:28:03.601Z,81.76
2022-08-06T05:30:49.985Z,82.59
2022-08-06T05:33:29.699Z,82.64
2022-08-06T05:36:02.397Z,82.37
2022-08-06T05:38:37.098Z,82.84
2022-08-06T05:41:11.109Z,82.60
2022-08-06T05:43:58.908Z,82.50
2022-08-06T05:46:35.234Z,82.68
2022-08-06T05:49:54.681Z,81.86
2022-08-06T05:52:49.694Z,81.57
2022-08-06T05:55:38.661Z,80.66
2022-08-06T05:58:15.264Z,80.03
2022-08-06T06:00:46.967Z,78.82
2022-08-06T06:03:23.865Z,77.57
2022-08-06T06:06:06.853Z,76.37
2022-08-06T06:08:55.535Z,76.60
2022-08-06T06:11:47.290Z,76.26
2022-08-06T06:14:32.731Z,75.14
2022-08-06T06:17:50.023Z,74.14
2022-08-06T06:21:03.139Z,73.48
2022-08-06T06:23:55.010Z,71.98
2022-08-06T06:26:49.806Z,70.98
2022-08-06T06:30:05.011Z,71.80
2022-08-06T06:32:42.597Z,71.14
2022-08-06T06:35:42.860Z,70.25
2022-08-06T06:38:44.310Z,68.90
2022-08-06T06:41:31.580Z,68.02
2022-08-06T06:45:03.350Z,66.92
2022-08-06T06:47:36.545Z,65.54
2022-08-06T06:50:20.345Z,65.64
2022-08-06T06:52:52.134Z,66.90
2022-08-06T06:55:55.736Z,64.57
2022-08-06T06:58:59.815Z,64.09
2022-08-06T07:01:33.337Z,64.18
2022-08-06T07:04:06.269Z,63.98
2022-08-06T07:06:44.636Z,63.28
2022-08-06T07:09:41.646Z,61.94
2022-08-06T07:12:20.134Z,61.15
2022-08-06T07:15:01.097Z,60.55
2022-08-06T07:17:58.941Z,58.86
2022-08-06T07:20:29.219Z,58.50
2022-08-06T07:24:04.622Z,58.68
2022-08-06T07:25:54.530Z,58.14
2022-08-06T07:28:29.645Z,58.43
2022-08-06T07:31:04.383Z,56.60
2022-08-06T07:34:00.127Z,55.77
2022-08-06T07:36:38.061Z,55.12
2022-08-06T07:39:12.447Z,55.78
2022-08-06T07:42:07.785Z,56.05
2022-08-06T07:44:54.652Z,55.17
2022-08-06T07:47:54.356Z,54.68
2022-08-06T07:50:25.381Z,54.35
2022-08-06T07:52:56.963Z,53.91
2022-08-06T07:55:36.752Z,52.32
2022-08-06T07:58:09.662Z,52.79
2022-08-06T08:00:39.120Z,52.11
2022-08-06T08:03:43.543Z,51.05
2022-08-06T08:06:21.195Z,50.30
2022-08-06T08:08:54.700Z,52.24
2022-08-06T08:11:38.175Z,52.74
2022-08-06T08:14:19.012Z,50.88
2022-08-06T08:16:48.923Z,50.30
2022-08-06T08:19:42.791Z,49.26
2022-08-06T08:22:18.838Z,50.98
2022-08-06T08:24:53.842Z,51.06
2022-08-06T08:27:23.770Z,52.47
2022-08-06T08:30:05.422Z,53.14
2022-08-06T08:32:32.650Z,51.73
2022-08-06T08:35:00.688Z,51.54
2022-08-06T08:37:32.351Z,51.60
2022-08-06T08:40:00.250Z,52.33
2022-08-06T08:42:49.325Z,50.86
2022-08-06T08:45:23.297Z,49.78
2022-08-06T08:48:06.017Z,49.71
2022-08-06T08:50:35.574Z,49.41
2022-08-06T08:53:12.968Z,47.95
2022-08-06T08:57:10.695Z,47.47
2022-08-06T08:58:39.622Z,48.62
2022-08-06T09:01:51.115Z,49.95
2022-08-06T09:04:02.482Z,47.93
2022-08-06T09:06:30.512Z,47.65
2022-08-06T09:09:04.807Z,46.68
2022-08-06T09:12:05.548Z,44.87
2022-08-06T09:14:28.260Z,45.89
2022-08-06T09:17:04.043Z,44.35
2022-08-06T09:19:37.776Z,47.26
2022-08-06T09:22:08.888Z,49.19
2022-08-06T09:24:39.601Z,50.28
2022-08-06T09:27:47.258Z,50.44
2022-08-06T09:30:11.740Z,50.81
2022-08-06T09:32:54.975Z,48.73
2022-08-06T09:35:44.850Z,48.10
2022-08-06T09:38:16.531Z,47.40
2022-08-06T09:41:15.455Z,47.78
2022-08-06T09:44:03.561Z,48.37
2022-08-06T09:46:39.068Z,49.34
2022-08-06T09:49:45.457Z,47.84
2022-08-06T09:52:19.691Z,44.75
2022-08-06T09:54:52.702Z,45.68
2022-08-06T09:57:36.325Z,43.85
2022-08-06T10:00:14.698Z,44.91
2022-08-06T10:02:50.794Z,43.78
2022-08-06T10:05:20.378Z,45.87
2022-08-06T10:08:02.005Z,45.79
2022-08-06T10:10:52.672Z,44.63
2022-08-06T10:13:39.227Z,44.01
2022-08-06T10:16:29.030Z,43.00
2022-08-06T10:18:59.991Z,44.36
2022-08-06T10:21:42.484Z,44.46
2022-08-06T10:24:25.822Z,44.66
2022-08-06T10:27:14.257Z,44.35
2022-08-06T10:30:02.272Z,45.76
2022-08-06T10:32:45.002Z,45.45
2022-08-06T10:35:16.734Z,44.54
2022-08-06T10:37:53.128Z,43.34
2022-08-06T10:40:30.650Z,41.36
2022-08-06T10:43:03.354Z,41.01
2022-08-06T10:45:48.950Z,40.50
2022-08-06T10:49:00.985Z,41.14
2022-08-06T10:51:08.828Z,41.14
2022-08-06T10:54:00.991Z,40.57
2022-08-06T10:56:38.881Z,41.61
2022-08-06T10:59:18.202Z,40.25
2022-08-06T11:02:20.119Z,39.63
2022-08-06T11:05:21.181Z,39.61
2022-08-06T11:08:23.482Z,39.77
2022-08-06T11:11:41.990Z,41.13
2022-08-06T11:14:18.435Z,41.67
2022-08-06T11:16:57.504Z,43.23
2022-08-06T11:19:46.990Z,42.82
2022-08-06T11:22:43.283Z,41.01
2022-08-06T11:26:07.211Z,40.54
2022-08-06T11:28:33.826Z,39.92
2022-08-06T11:31:12.094Z,38.79
2022-08-06T11:33:48.610Z,37.96
2022-08-06T11:36:42.419Z,39.43
2022-08-06T11:39:34.645Z,40.90
2022-08-06T11:42:48.182Z,41.93
2022-08-06T11:46:20.019Z,41.86
2022-08-06T11:48:12.781Z,40.46
2022-08-06T11:50:53.951Z,40.82
2022-08-06T11:53:52.255Z,38.90
2022-08-06T11:56:19.985Z,40.64
2022-08-06T11:59:16.119Z,40.83
2022-08-06T12:01:48.383Z,41.25
2022-08-06T12:04:36.810Z,41.52
2022-08-06T12:07:29.527Z,40.77
2022-08-06T12:10:06.948Z,38.57
2022-08-06T12:12:51.921Z,39.11
2022-08-06T12:15:59.280Z,37.65
2022-08-06T12:18:20.746Z,37.01
2022-08-06T12:20:57.712Z,37.99
2022-08-06T12:23:53.801Z,38.17
2022-08-06T12:26:15.016Z,39.36
2022-08-06T12:28:43.910Z,39.64
2022-08-06T12:31:35.836Z,38.80
2022-08-06T12:33:59.282Z,38.76
2022-08-06T12:36:34.960Z,39.25
2022-08-06T12:39:13.713Z,38.97
2022-08-06T12:41:47.446Z,38.12
2022-08-06T12:44:20.271Z,38.80
2022-08-06T12:47:15.113Z,38.80
2022-08-06T12:49:43.963Z,38.75
2022-08-06T12:52:30.257Z,37.09
2022-08-06T12:54:57.173Z,34.24
2022-08-06T12:57:58.892Z,34.56
2022-08-06T13:00:16.616Z,35.92
2022-08-06T13:02:46.322Z,36.11
2022-08-06T13:05:15.566Z,35.95
2022-08-06T13:07:50.823Z,36.91
2022-08-06T13:10:34.199Z,36.99
2022-08-06T13:14:14.362Z,36.87
2022-08-06T13:16:06.868Z,35.77
2022-08-06T13:18:47.521Z,36.68
2022-08-06T13:21:27.041Z,37.34
2022-08-06T13:24:12.754Z,36.01
2022-08-06T13:26:52.905Z,36.45
2022-08-06T13:30:35.202Z,36.31
2022-08-06T13:32:27.322Z,35.41
2022-08-06T13:35:04.252Z,35.97
2022-08-06T13:37:57.506Z,35.49
2022-08-06T13:40:47.075Z,34.96
2022-08-06T13:43:40.015Z,35.26
2022-08-06T13:46:16.957Z,34.29
2022-08-06T13:48:52.634Z,35.44
2022-08-06T13:51:27.602Z,34.90
2022-08-06T13:53:58.631Z,33.85
2022-08-06T13:56:29.174Z,33.99
2022-08-06T13:59:01.424Z,35.04
2022-08-06T14:01:44.685Z,34.37
2022-08-06T14:04:15.540Z,35.16
2022-08-06T14:06:46.904Z,34.71
2022-08-06T14:09:19.351Z,34.88
2022-08-06T14:12:00.591Z,33.94
2022-08-06T14:14:29.917Z,33.59
2022-08-06T14:17:00.411Z,33.81
2022-08-06T14:20:17.573Z,34.64
2022-08-06T14:22:18.207Z,34.45
2022-08-06T14:24:52.833Z,34.53
2022-08-06T14:27:25.816Z,35.76
2022-08-06T14:30:25.890Z,35.79
2022-08-06T14:32:47.743Z,36.71
2022-08-06T14:35:17.447Z,35.71
2022-08-06T14:37:50.513Z,35.78
2022-08-06T14:40:41.293Z,35.58
2022-08-06T14:43:55.164Z,35.82
2022-08-06T14:46:25.973Z,34.74
2022-08-06T14:48:57.641Z,33.38
2022-08-06T14:51:37.522Z,34.25
2022-08-06T14:54:15.698Z,35.09
2022-08-06T14:56:45.428Z,34.83
2022-08-06T14:59:22.553Z,35.62
2022-08-06T15:01:51.708Z,36.00
2022-08-06T15:04:24.717Z,34.69
2022-08-06T15:06:57.415Z,34.41
2022-08-06T15:10:05.789Z,35.06
2022-08-06T15:12:24.854Z,35.15
2022-08-06T15:15:09.119Z,34.72
2022-08-06T15:18:05.610Z,34.10
2022-08-06T15:20:27.211Z,34.51
2022-08-06T15:22:55.745Z,33.89
2022-08-06T15:26:00.358Z,32.54
2022-08-06T15:28:11.453Z,32.72
2022-08-06T15:30:39.347Z,34.33
2022-08-06T15:33:11.413Z,35.01
2022-08-06T15:35:43.690Z,36.23
2022-08-06T15:38:27.067Z,35.51
2022-08-06T15:40:55.102Z,34.39
2022-08-06T15:43:25.767Z,34.00
2022-08-06T15:45:57.995Z,34.67
2022-08-06T15:48:30.586Z,35.29
2022-08-06T15:51:27.482Z,34.84
2022-08-06T15:53:54.021Z,33.56
2022-08-06T15:56:33.899Z,32.61
2022-08-06T15:59:11.948Z,33.09
2022-08-06T16:01:52.476Z,32.95
2022-08-06T16:04:35.522Z,33.51
2022-08-06T16:07:06.642Z,32.71
2022-08-06T16:10:00.474Z,33.56
2022-08-06T16:12:25.631Z,32.87
2022-08-06T16:14:56.054Z,33.14
2022-08-06T16:17:33.741Z,32.82
2022-08-06T16:20:20.766Z,33.95
2022-08-06T16:22:52.488Z,34.36
2022-08-06T16:25:23.109Z,34.53
2022-08-06T16:27:51.937Z,34.88
2022-08-06T16:30:21.161Z,35.50
2022-08-06T16:32:50.114Z,35.83
2022-08-06T16:35:21.923Z,35.88
2022-08-06T16:37:52.966Z,36.02
2022-08-06T16:40:24.929Z,35.81
2022-08-06T16:42:53.857Z,34.88
2022-08-06T16:45:23.096Z,35.24
2022-08-06T16:48:04.371Z,34.57
2022-08-06T16:50:43.148Z,35.56
2022-08-06T16:54:14.525Z,35.55
2022-08-06T16:56:00.094Z,35.69
2022-08-06T17:02:15.150Z,36.17
2022-08-06T17:04:03.125Z,36.21
2022-08-06T17:06:34.223Z,35.78
2022-08-06T17:12:00.603Z,36.41
2022-08-06T17:14:32.740Z,35.59
2022-08-06T17:20:01.142Z,34.38
2022-08-06T17:22:30.805Z,34.66
2022-08-06T17:24:58.806Z,34.51
2022-08-06T17:30:16.842Z,35.32
2022-08-06T17:32:47.400Z,34.73
2022-08-06T17:35:16.414Z,34.91
2022-08-06T17:37:50.246Z,34.65
2022-08-06T17:40:32.100Z,34.96
2022-08-06T17:43:12.607Z,35.79
2022-08-06T17:45:52.516Z,36.26
2022-08-06T17:48:26.964Z,36.42
2022-08-06T17:50:57.760Z,36.59
2022-08-06T17:53:25.942Z,37.36
2022-08-06T17:56:12.742Z,37.24
2022-08-06T17:59:17.688Z,37.16
2022-08-06T18:01:49.133Z,37.73
2022-08-06T18:04:22.407Z,37.62
2022-08-06T18:07:01.233Z,38.03
2022-08-06T18:10:11.115Z,37.91
2022-08-06T18:12:27.974Z,37.44
2022-08-06T18:14:56.139Z,38.51
2022-08-06T18:17:47.615Z,39.17
2022-08-06T18:20:11.477Z,38.21
2022-08-06T18:22:42.535Z,38.09
2022-08-06T18:25:15.244Z,38.72
2022-08-06T18:27:55.497Z,39.70
2022-08-06T18:30:30.280Z,39.18
2022-08-06T18:33:12.746Z,40.35
2022-08-06T18:35:56.108Z,41.41
2022-08-06T18:38:31.415Z,41.97
2022-08-06T18:41:05.854Z,43.13
2022-08-06T18:43:49.938Z,43.21
2022-08-06T18:46:56.945Z,43.22
2022-08-06T18:49:26.681Z,43.98
2022-08-06T18:52:00.827Z,44.72
2022-08-06T18:54:27.967Z,44.75
2022-08-06T18:56:57.483Z,45.01
2022-08-06T18:59:29.759Z,45.57
2022-08-06T19:02:00.509Z,46.30
2022-08-06T19:04:29.903Z,46.50
2022-08-06T19:07:00.135Z,46.62
2022-08-06T19:09:35.238Z,47.14
2022-08-06T19:12:20.475Z,47.43
2022-08-06T19:14:50.197Z,47.77
2022-08-06T19:17:47.823Z,47.96
2022-08-06T19:20:19.979Z,48.18
2022-08-06T19:22:53.465Z,48.91
2022-08-06T19:25:22.886Z,49.05
2022-08-06T19:28:30.780Z,48.79
2022-08-06T19:30:46.073Z,49.01
2022-08-06T19:33:16.293Z,49.30
2022-08-06T19:36:06.748Z,49.92
2022-08-06T19:38:33.765Z,49.98
2022-08-06T19:41:02.429Z,49.92
2022-08-06T19:44:26.468Z,50.91
2022-08-06T19:46:30.711Z,51.18
2022-08-06T19:49:04.562Z,51.33
2022-08-06T19:52:02.369Z,51.47
2022-08-06T19:54:26.278Z,51.76
2022-08-06T19:57:08.451Z,51.92
2022-08-06T20:00:52.993Z,52.33
2022-08-06T20:02:26.438Z,52.44
2022-08-06T20:04:55.705Z,52.74
2022-08-06T20:07:27.955Z,52.70
2022-08-06T20:10:01.338Z,52.78
2022-08-06T20:12:40.792Z,52.22
2022-08-06T20:15:17.621Z,52.99
2022-08-06T20:17:54.109Z,53.65
2022-08-06T20:20:29.141Z,53.72
2022-08-06T20:23:08.439Z,53.95
2022-08-06T20:26:34.302Z,53.77
2022-08-06T20:29:08.729Z,53.92
2022-08-06T20:31:22.204Z,54.31
2022-08-06T20:33:59.309Z,54.13
2022-08-06T20:36:31.921Z,54.41
2022-08-06T20:39:01.001Z,54.52
2022-08-06T20:42:03.338Z,55.27
2022-08-06T20:44:19.658Z,55.68
2022-08-06T20:47:01.571Z,55.26
2022-08-06T20:50:03.465Z,55.51
2022-08-06T20:52:24.800Z,55.50
2022-08-06T20:54:55.388Z,55.77
2022-08-06T20:57:27.896Z,56.29
2022-08-06T20:59:58.093Z,56.89
2022-08-06T21:02:31.882Z,56.70
2022-08-06T21:05:16.037Z,56.76
2022-08-06T21:07:57.638Z,57.08
2022-08-06T21:10:30.345Z,56.99
2022-08-06T21:13:06.536Z,57.54
2022-08-06T21:15:54.468Z,57.30
2022-08-06T21:18:24.239Z,57.94
2022-08-06T21:20:53.730Z,58.08
2022-08-06T21:23:42.054Z,58.04
2022-08-06T21:26:15.465Z,58.11
2022-08-06T21:28:54.366Z,58.50
2022-08-06T21:31:24.363Z,59.09
2022-08-06T21:33:54.728Z,58.97
2022-08-06T21:36:25.821Z,57.96
2022-08-06T21:38:59.010Z,58.34
2022-08-06T21:41:38.520Z,59.04
2022-08-06T21:44:17.546Z,59.24
2022-08-06T21:46:50.055Z,58.96
2022-08-06T21:49:58.776Z,59.32
2022-08-06T21:52:12.008Z,59.74
2022-08-06T21:54:43.589Z,59.44
2022-08-06T21:57:12.374Z,59.53
2022-08-06T21:59:46.335Z,59.78
2022-08-06T22:02:26.357Z,59.76
2022-08-06T22:05:00.129Z,59.67
2022-08-06T22:08:07.022Z,60.22
2022-08-06T22:10:28.943Z,60.51
2022-08-06T22:13:15.866Z,61.03
2022-08-06T22:15:47.010Z,61.35
2022-08-06T22:18:18.872Z,60.99
2022-08-06T22:20:56.066Z,60.85
2022-08-06T22:23:25.469Z,61.38
2022-08-06T22:25:57.404Z,61.33
2022-08-06T22:28:34.211Z,61.61
2022-08-06T22:31:08.749Z,61.54
2022-08-06T22:33:58.180Z,61.09
2022-08-06T22:36:34.054Z,61.31
2022-08-06T22:39:03.170Z,61.48
2022-08-06T22:42:04.802Z,61.94
2022-08-06T22:44:31.021Z,62.15
2022-08-06T22:47:05.813Z,62.13
2022-08-06T22:50:00.438Z,61.89
2022-08-06T22:52:39.152Z,61.38
2022-08-06T22:55:11.654Z,62.73
2022-08-06T22:58:05.010Z,63.54
2022-08-06T23:00:36.557Z,63.63
2022-08-06T23:03:13.366Z,63.52
2022-08-06T23:05:46.668Z,62.79
2022-08-06T23:08:15.718Z,62.68
2022-08-06T23:10:48.282Z,63.79
2022-08-06T23:13:23.952Z,63.99
2022-08-06T23:15:58.586Z,64.46
2022-08-06T23:18:30.337Z,64.61
2022-08-06T23:21:20.260Z,64.13
2022-08-06T23:23:54.822Z,64.31
2022-08-06T23:26:31.963Z,64.47
2022-08-06T23:29:04.086Z,64.09
2022-08-06T23:31:34.018Z,64.30
2022-08-06T23:34:33.514Z,64.11
2022-08-06T23:36:57.136Z,63.72
2022-08-06T23:39:29.101Z,65.59
2022-08-06T23:42:22.389Z,64.94
2022-08-06T23:44:51.497Z,64.15
2022-08-06T23:47:54.149Z,64.88
2022-08-06T23:50:10.132Z,65.09
2022-08-06T23:52:42.143Z,65.25
2022-08-06T23:55:26.031Z,65.42
2022-08-06T23:58:00.230Z,64.93
